sensor_id;sensor_type;location;lat;lon;timestamp;temperature;humidity
53254;DHT22;39148;53.332;6.922;2022-10-23T00:00:35;14.10;92.70
53254;DHT22;39148;53.332;6.922;2022-10-23T00:03:00;14.00;92.10
53254;DHT22;39148;53.332;6.922;2022-10-23T00:05:27;14.00;92.10
53254;DHT22;39148;53.332;6.922;2022-10-23T00:07:55;14.10;92.10
53254;DHT22;39148;53.332;6.922;2022-10-23T00:10:22;13.90;92.80
53254;DHT22;39148;53.332;6.922;2022-10-23T00:12:49;14.10;92.20
53254;DHT22;39148;53.332;6.922;2022-10-23T00:15:17;14.00;92.20
53254;DHT22;39148;53.332;6.922;2022-10-23T00:17:43;14.00;92.70
53254;DHT22;39148;53.332;6.922;2022-10-23T00:20:10;14.10;92.20
53254;DHT22;39148;53.332;6.922;2022-10-23T00:22:36;13.90;92.20
53254;DHT22;39148;53.332;6.922;2022-10-23T00:25:06;13.90;92.20
53254;DHT22;39148;53.332;6.922;2022-10-23T00:27:33;14.00;91.70
53254;DHT22;39148;53.332;6.922;2022-10-23T00:29:59;13.90;92.10
53254;DHT22;39148;53.332;6.922;2022-10-23T00:32:25;14.00;92.20
53254;DHT22;39148;53.332;6.922;2022-10-23T00:34:51;13.90;92.70
53254;DHT22;39148;53.332;6.922;2022-10-23T00:37:17;14.00;92.20
53254;DHT22;39148;53.332;6.922;2022-10-23T00:39:43;13.90;92.10
53254;DHT22;39148;53.332;6.922;2022-10-23T00:42:19;13.90;92.20
53254;DHT22;39148;53.332;6.922;2022-10-23T00:47:12;13.90;92.40
53254;DHT22;39148;53.332;6.922;2022-10-23T00:49:38;13.90;92.20
53254;DHT22;39148;53.332;6.922;2022-10-23T00:52:07;13.90;92.70
53254;DHT22;39148;53.332;6.922;2022-10-23T00:54:36;13.90;92.20
53254;DHT22;39148;53.332;6.922;2022-10-23T00:57:05;14.10;92.30
53254;DHT22;39148;53.332;6.922;2022-10-23T00:59:31;13.80;92.20
53254;DHT22;39148;53.332;6.922;2022-10-23T01:01:58;13.90;92.80
53254;DHT22;39148;53.332;6.922;2022-10-23T01:04:25;13.90;92.20
53254;DHT22;39148;53.332;6.922;2022-10-23T01:07:07;15.10;92.50
53254;DHT22;39148;53.332;6.922;2022-10-23T01:15:18;13.90;92.30
53254;DHT22;39148;53.332;6.922;2022-10-23T01:17:53;13.80;92.30
53254;DHT22;39148;53.332;6.922;2022-10-23T01:20:41;13.80;91.70
53254;DHT22;39148;53.332;6.922;2022-10-23T01:28:52;13.80;91.80
53254;DHT22;39148;53.332;6.922;2022-10-23T01:31:33;13.80;91.90
53254;DHT22;39148;53.332;6.922;2022-10-23T01:34:06;13.60;92.70
53254;DHT22;39148;53.332;6.922;2022-10-23T01:36:33;15.00;92.60
53254;DHT22;39148;53.332;6.922;2022-10-23T01:39:17;13.70;92.20
53254;DHT22;39148;53.332;6.922;2022-10-23T01:41:51;13.60;92.80
53254;DHT22;39148;53.332;6.922;2022-10-23T01:44:22;13.70;92.30
53254;DHT22;39148;53.332;6.922;2022-10-23T01:46:49;13.80;92.60
53254;DHT22;39148;53.332;6.922;2022-10-23T01:49:16;13.70;92.20
53254;DHT22;39148;53.332;6.922;2022-10-23T01:51:47;13.60;92.20
53254;DHT22;39148;53.332;6.922;2022-10-23T01:54:15;13.70;92.20
53254;DHT22;39148;53.332;6.922;2022-10-23T01:56:45;13.80;92.80
53254;DHT22;39148;53.332;6.922;2022-10-23T01:59:17;13.70;92.30
53254;DHT22;39148;53.332;6.922;2022-10-23T02:01:46;13.70;92.30
53254;DHT22;39148;53.332;6.922;2022-10-23T02:04:16;13.80;92.30
53254;DHT22;39148;53.332;6.922;2022-10-23T02:06:43;13.60;92.20
53254;DHT22;39148;53.332;6.922;2022-10-23T02:09:08;13.70;92.20
53254;DHT22;39148;53.332;6.922;2022-10-23T02:11:38;13.50;92.70
53254;DHT22;39148;53.332;6.922;2022-10-23T02:14:56;13.60;92.20
53254;DHT22;39148;53.332;6.922;2022-10-23T02:17:32;13.50;92.70
53254;DHT22;39148;53.332;6.922;2022-10-23T02:20:14;13.60;92.40
53254;DHT22;39148;53.332;6.922;2022-10-23T02:22:47;15.20;92.70
53254;DHT22;39148;53.332;6.922;2022-10-23T02:25:27;13.50;92.80
53254;DHT22;39148;53.332;6.922;2022-10-23T02:27:55;13.60;92.80
53254;DHT22;39148;53.332;6.922;2022-10-23T02:30:22;15.10;92.60
53254;DHT22;39148;53.332;6.922;2022-10-23T02:32:51;13.70;92.80
53254;DHT22;39148;53.332;6.922;2022-10-23T02:35:19;13.50;92.70
53254;DHT22;39148;53.332;6.922;2022-10-23T02:37:53;13.60;92.30
53254;DHT22;39148;53.332;6.922;2022-10-23T02:40:19;14.30;92.70
53254;DHT22;39148;53.332;6.922;2022-10-23T02:43:13;13.50;92.70
53254;DHT22;39148;53.332;6.922;2022-10-23T02:45:53;13.50;91.80
53254;DHT22;39148;53.332;6.922;2022-10-23T02:48:24;13.50;92.70
53254;DHT22;39148;53.332;6.922;2022-10-23T02:51:02;13.50;92.80
53254;DHT22;39148;53.332;6.922;2022-10-23T02:53:48;13.60;91.80
53254;DHT22;39148;53.332;6.922;2022-10-23T02:59:22;13.50;92.80
53254;DHT22;39148;53.332;6.922;2022-10-23T03:01:54;13.40;92.70
53254;DHT22;39148;53.332;6.922;2022-10-23T03:04:23;13.40;92.70
53254;DHT22;39148;53.332;6.922;2022-10-23T03:06:50;13.50;92.30
53254;DHT22;39148;53.332;6.922;2022-10-23T03:09:16;13.30;92.70
53254;DHT22;39148;53.332;6.922;2022-10-23T03:11:42;13.50;92.20
53254;DHT22;39148;53.332;6.922;2022-10-23T03:14:09;13.60;92.80
53254;DHT22;39148;53.332;6.922;2022-10-23T03:16:36;13.50;92.20
53254;DHT22;39148;53.332;6.922;2022-10-23T03:19:01;13.50;92.80
53254;DHT22;39148;53.332;6.922;2022-10-23T03:21:27;13.50;92.70
53254;DHT22;39148;53.332;6.922;2022-10-23T03:23:53;13.30;92.70
53254;DHT22;39148;53.332;6.922;2022-10-23T03:26:18;13.50;92.20
53254;DHT22;39148;53.332;6.922;2022-10-23T03:28:44;13.50;92.30
53254;DHT22;39148;53.332;6.922;2022-10-23T03:31:10;13.50;92.70
53254;DHT22;39148;53.332;6.922;2022-10-23T03:36:02;13.40;91.50
53254;DHT22;39148;53.332;6.922;2022-10-23T03:38:28;13.40;92.20
53254;DHT22;39148;53.332;6.922;2022-10-23T03:40:53;13.40;92.70
53254;DHT22;39148;53.332;6.922;2022-10-23T03:43:19;13.30;92.80
53254;DHT22;39148;53.332;6.922;2022-10-23T03:45:45;13.40;92.20
53254;DHT22;39148;53.332;6.922;2022-10-23T03:48:10;13.50;92.80
53254;DHT22;39148;53.332;6.922;2022-10-23T03:50:36;13.40;92.80
53254;DHT22;39148;53.332;6.922;2022-10-23T03:53:02;13.40;92.20
53254;DHT22;39148;53.332;6.922;2022-10-23T03:55:28;13.30;92.20
53254;DHT22;39148;53.332;6.922;2022-10-23T03:57:54;13.30;92.20
53254;DHT22;39148;53.332;6.922;2022-10-23T04:00:20;13.20;92.70
53254;DHT22;39148;53.332;6.922;2022-10-23T04:02:46;13.40;92.20
53254;DHT22;39148;53.332;6.922;2022-10-23T04:07:38;13.30;91.50
53254;DHT22;39148;53.332;6.922;2022-10-23T04:10:04;13.30;92.80
53254;DHT22;39148;53.332;6.922;2022-10-23T04:12:30;13.20;92.20
53254;DHT22;39148;53.332;6.922;2022-10-23T04:14:56;13.40;92.20
53254;DHT22;39148;53.332;6.922;2022-10-23T04:17:21;13.20;92.70
53254;DHT22;39148;53.332;6.922;2022-10-23T04:19:47;13.30;92.90
53254;DHT22;39148;53.332;6.922;2022-10-23T04:22:13;13.40;92.80
53254;DHT22;39148;53.332;6.922;2022-10-23T04:24:39;13.40;92.80
53254;DHT22;39148;53.332;6.922;2022-10-23T04:27:10;13.40;92.80
53254;DHT22;39148;53.332;6.922;2022-10-23T04:29:35;13.30;92.20
53254;DHT22;39148;53.332;6.922;2022-10-23T04:32:01;13.70;92.30
53254;DHT22;39148;53.332;6.922;2022-10-23T04:34:26;13.40;92.20
53254;DHT22;39148;53.332;6.922;2022-10-23T04:36:52;13.30;92.80
53254;DHT22;39148;53.332;6.922;2022-10-23T04:39:18;13.20;92.70
53254;DHT22;39148;53.332;6.922;2022-10-23T04:41:43;13.20;92.20
53254;DHT22;39148;53.332;6.922;2022-10-23T04:44:09;13.20;92.20
53254;DHT22;39148;53.332;6.922;2022-10-23T04:46:35;13.30;92.80
53254;DHT22;39148;53.332;6.922;2022-10-23T04:49:01;13.20;92.20
53254;DHT22;39148;53.332;6.922;2022-10-23T04:51:26;13.20;92.20
53254;DHT22;39148;53.332;6.922;2022-10-23T04:53:52;13.10;92.20
53254;DHT22;39148;53.332;6.922;2022-10-23T04:58:44;13.30;92.80
53254;DHT22;39148;53.332;6.922;2022-10-23T05:01:10;13.20;92.20
53254;DHT22;39148;53.332;6.922;2022-10-23T05:03:36;13.30;92.80
53254;DHT22;39148;53.332;6.922;2022-10-23T05:06:03;13.20;92.20
53254;DHT22;39148;53.332;6.922;2022-10-23T05:08:29;13.20;92.20
53254;DHT22;39148;53.332;6.922;2022-10-23T05:10:54;13.20;92.20
53254;DHT22;39148;53.332;6.922;2022-10-23T05:13:20;13.10;92.80
53254;DHT22;39148;53.332;6.922;2022-10-23T05:15:50;13.60;92.40
53254;DHT22;39148;53.332;6.922;2022-10-23T05:18:25;13.10;92.40
53254;DHT22;39148;53.332;6.922;2022-10-23T05:21:07;13.20;92.80
53254;DHT22;39148;53.332;6.922;2022-10-23T05:23:35;13.10;92.30
53254;DHT22;39148;53.332;6.922;2022-10-23T05:26:03;13.20;92.30
53254;DHT22;39148;53.332;6.922;2022-10-23T05:28:29;13.10;92.80
53254;DHT22;39148;53.332;6.922;2022-10-23T05:30:57;13.10;92.20
53254;DHT22;39148;53.332;6.922;2022-10-23T05:33:25;13.20;92.80
53254;DHT22;39148;53.332;6.922;2022-10-23T05:35:51;13.30;92.80
53254;DHT22;39148;53.332;6.922;2022-10-23T05:38:17;13.10;92.50
53254;DHT22;39148;53.332;6.922;2022-10-23T05:40:43;13.10;92.20
53254;DHT22;39148;53.332;6.922;2022-10-23T05:43:09;13.20;92.30
53254;DHT22;39148;53.332;6.922;2022-10-23T05:45:35;13.00;92.80
53254;DHT22;39148;53.332;6.922;2022-10-23T05:48:00;13.30;92.30
53254;DHT22;39148;53.332;6.922;2022-10-23T05:50:26;13.10;92.20
53254;DHT22;39148;53.332;6.922;2022-10-23T05:52:52;13.10;92.20
53254;DHT22;39148;53.332;6.922;2022-10-23T05:55:17;13.20;92.80
53254;DHT22;39148;53.332;6.922;2022-10-23T05:57:43;13.10;92.20
53254;DHT22;39148;53.332;6.922;2022-10-23T06:00:09;13.10;92.20
53254;DHT22;39148;53.332;6.922;2022-10-23T06:02:35;13.00;92.80
53254;DHT22;39148;53.332;6.922;2022-10-23T06:05:01;13.00;92.80
53254;DHT22;39148;53.332;6.922;2022-10-23T06:07:28;13.10;92.30
53254;DHT22;39148;53.332;6.922;2022-10-23T06:09:54;13.10;92.30
53254;DHT22;39148;53.332;6.922;2022-10-23T06:12:20;13.10;92.30
53254;DHT22;39148;53.332;6.922;2022-10-23T06:14:47;12.90;92.80
53254;DHT22;39148;53.332;6.922;2022-10-23T06:17:13;13.10;92.30
53254;DHT22;39148;53.332;6.922;2022-10-23T06:19:38;13.50;92.40
53254;DHT22;39148;53.332;6.922;2022-10-23T06:22:04;13.00;92.80
53254;DHT22;39148;53.332;6.922;2022-10-23T06:24:30;13.00;92.90
53254;DHT22;39148;53.332;6.922;2022-10-23T06:26:56;13.00;92.30
53254;DHT22;39148;53.332;6.922;2022-10-23T06:29:22;13.00;92.30
53254;DHT22;39148;53.332;6.922;2022-10-23T06:31:48;13.00;92.80
53254;DHT22;39148;53.332;6.922;2022-10-23T06:34:14;13.70;92.40
53254;DHT22;39148;53.332;6.922;2022-10-23T06:39:06;14.00;91.90
53254;DHT22;39148;53.332;6.922;2022-10-23T06:41:31;13.00;92.80
53254;DHT22;39148;53.332;6.922;2022-10-23T06:43:57;12.90;92.80
53254;DHT22;39148;53.332;6.922;2022-10-23T06:46:23;13.00;92.30
53254;DHT22;39148;53.332;6.922;2022-10-23T06:48:48;13.00;92.30
53254;DHT22;39148;53.332;6.922;2022-10-23T06:51:15;13.00;92.80
53254;DHT22;39148;53.332;6.922;2022-10-23T06:53:42;14.00;92.60
53254;DHT22;39148;53.332;6.922;2022-10-23T06:56:08;14.00;92.60
53254;DHT22;39148;53.332;6.922;2022-10-23T06:58:36;12.90;92.90
53254;DHT22;39148;53.332;6.922;2022-10-23T07:01:04;12.90;92.90
53254;DHT22;39148;53.332;6.922;2022-10-23T07:03:30;12.90;92.90
53254;DHT22;39148;53.332;6.922;2022-10-23T07:05:59;12.90;92.80
53254;DHT22;39148;53.332;6.922;2022-10-23T07:08:25;12.90;92.80
53254;DHT22;39148;53.332;6.922;2022-10-23T07:10:51;12.90;92.20
53254;DHT22;39148;53.332;6.922;2022-10-23T07:13:17;13.30;92.30
53254;DHT22;39148;53.332;6.922;2022-10-23T07:15:43;12.90;92.80
53254;DHT22;39148;53.332;6.922;2022-10-23T07:18:09;12.80;92.80
53254;DHT22;39148;53.332;6.922;2022-10-23T07:20:40;12.90;91.90
53254;DHT22;39148;53.332;6.922;2022-10-23T07:23:06;13.00;92.80
53254;DHT22;39148;53.332;6.922;2022-10-23T07:25:31;12.80;92.80
53254;DHT22;39148;53.332;6.922;2022-10-23T07:27:57;12.90;92.80
53254;DHT22;39148;53.332;6.922;2022-10-23T07:30:23;12.80;92.80
53254;DHT22;39148;53.332;6.922;2022-10-23T07:32:49;13.10;92.30
53254;DHT22;39148;53.332;6.922;2022-10-23T07:35:16;12.80;92.80
53254;DHT22;39148;53.332;6.922;2022-10-23T07:40:08;12.90;91.60
53254;DHT22;39148;53.332;6.922;2022-10-23T07:42:34;12.90;92.20
53254;DHT22;39148;53.332;6.922;2022-10-23T07:45:00;12.80;92.80
53254;DHT22;39148;53.332;6.922;2022-10-23T07:47:25;12.90;92.80
53254;DHT22;39148;53.332;6.922;2022-10-23T07:49:51;12.90;92.90
53254;DHT22;39148;53.332;6.922;2022-10-23T07:52:17;13.00;92.80
53254;DHT22;39148;53.332;6.922;2022-10-23T07:54:42;12.90;92.80
53254;DHT22;39148;53.332;6.922;2022-10-23T07:57:09;12.80;92.80
53254;DHT22;39148;53.332;6.922;2022-10-23T07:59:36;12.80;92.90
53254;DHT22;39148;53.332;6.922;2022-10-23T08:04:28;12.80;92.80
53254;DHT22;39148;53.332;6.922;2022-10-23T08:06:54;12.80;92.80
53254;DHT22;39148;53.332;6.922;2022-10-23T08:09:21;13.00;92.80
53254;DHT22;39148;53.332;6.922;2022-10-23T08:11:47;12.90;92.80
53254;DHT22;39148;53.332;6.922;2022-10-23T08:14:12;13.90;92.50
53254;DHT22;39148;53.332;6.922;2022-10-23T08:19:05;12.80;92.80
53254;DHT22;39148;53.332;6.922;2022-10-23T08:21:32;13.00;92.80
53254;DHT22;39148;53.332;6.922;2022-10-23T08:23:58;12.90;92.30
53254;DHT22;39148;53.332;6.922;2022-10-23T08:26:26;12.90;92.80
53254;DHT22;39148;53.332;6.922;2022-10-23T08:28:54;12.80;92.80
53254;DHT22;39148;53.332;6.922;2022-10-23T08:31:20;12.90;92.90
53254;DHT22;39148;53.332;6.922;2022-10-23T08:33:46;12.90;92.80
53254;DHT22;39148;53.332;6.922;2022-10-23T08:36:19;12.80;92.80
53254;DHT22;39148;53.332;6.922;2022-10-23T08:38:45;12.80;92.80
53254;DHT22;39148;53.332;6.922;2022-10-23T08:41:32;12.90;92.80
53254;DHT22;39148;53.332;6.922;2022-10-23T08:44:37;12.80;91.60
53254;DHT22;39148;53.332;6.922;2022-10-23T08:47:17;12.90;92.00
53254;DHT22;39148;53.332;6.922;2022-10-23T08:49:51;12.90;91.90
53254;DHT22;39148;53.332;6.922;2022-10-23T08:52:32;12.90;92.40
53254;DHT22;39148;53.332;6.922;2022-10-23T08:57:50;12.90;92.40
53254;DHT22;39148;53.332;6.922;2022-10-23T09:00:18;13.00;92.80
53254;DHT22;39148;53.332;6.922;2022-10-23T09:02:46;12.90;92.90
53254;DHT22;39148;53.332;6.922;2022-10-23T09:05:41;12.90;92.30
53254;DHT22;39148;53.332;6.922;2022-10-23T09:08:38;12.90;91.90
53254;DHT22;39148;53.332;6.922;2022-10-23T09:11:19;12.80;92.80
53254;DHT22;39148;53.332;6.922;2022-10-23T09:17:05;13.00;92.80
53254;DHT22;39148;53.332;6.922;2022-10-23T09:19:34;13.10;92.80
53254;DHT22;39148;53.332;6.922;2022-10-23T09:22:00;13.10;92.80
53254;DHT22;39148;53.332;6.922;2022-10-23T09:24:27;13.00;92.90
53254;DHT22;39148;53.332;6.922;2022-10-23T09:26:56;12.90;92.20
53254;DHT22;39148;53.332;6.922;2022-10-23T09:29:28;13.10;92.80
53254;DHT22;39148;53.332;6.922;2022-10-23T09:31:56;13.00;92.40
53254;DHT22;39148;53.332;6.922;2022-10-23T09:34:24;12.90;92.70
53254;DHT22;39148;53.332;6.922;2022-10-23T09:36:55;13.00;92.80
53254;DHT22;39148;53.332;6.922;2022-10-23T09:39:28;13.00;92.30
53254;DHT22;39148;53.332;6.922;2022-10-23T09:41:54;13.00;91.80
53254;DHT22;39148;53.332;6.922;2022-10-23T09:44:27;12.90;92.70
53254;DHT22;39148;53.332;6.922;2022-10-23T09:46:57;13.00;92.80
53254;DHT22;39148;53.332;6.922;2022-10-23T09:49:25;13.10;92.00
53254;DHT22;39148;53.332;6.922;2022-10-23T09:54:20;12.90;92.70
53254;DHT22;39148;53.332;6.922;2022-10-23T09:56:48;13.00;92.40
53254;DHT22;39148;53.332;6.922;2022-10-23T10:01:55;13.00;92.80
53254;DHT22;39148;53.332;6.922;2022-10-23T10:04:51;13.20;91.80
53254;DHT22;39148;53.332;6.922;2022-10-23T10:07:22;13.10;92.40
53254;DHT22;39148;53.332;6.922;2022-10-23T10:09:49;13.10;92.30
53254;DHT22;39148;53.332;6.922;2022-10-23T10:12:41;13.10;92.70
53254;DHT22;39148;53.332;6.922;2022-10-23T10:15:26;13.20;91.90
53254;DHT22;39148;53.332;6.922;2022-10-23T10:18:14;13.20;91.80
53254;DHT22;39148;53.332;6.922;2022-10-23T10:23:41;13.20;92.70
53254;DHT22;39148;53.332;6.922;2022-10-23T10:34:58;13.30;92.70
53254;DHT22;39148;53.332;6.922;2022-10-23T10:37:40;13.20;91.70
53254;DHT22;39148;53.332;6.922;2022-10-23T10:40:34;13.30;92.70
53254;DHT22;39148;53.332;6.922;2022-10-23T10:45:56;13.20;91.70
53254;DHT22;39148;53.332;6.922;2022-10-23T10:54:05;13.30;91.70
53254;DHT22;39148;53.332;6.922;2022-10-23T10:56:38;13.30;91.70
53254;DHT22;39148;53.332;6.922;2022-10-23T10:59:28;13.30;92.20
53254;DHT22;39148;53.332;6.922;2022-10-23T11:02:20;13.30;92.80
53254;DHT22;39148;53.332;6.922;2022-10-23T11:04:59;13.30;92.30
53254;DHT22;39148;53.332;6.922;2022-10-23T11:07:34;13.30;92.30
53254;DHT22;39148;53.332;6.922;2022-10-23T11:10:05;13.30;92.20
53254;DHT22;39148;53.332;6.922;2022-10-23T11:12:39;13.30;92.70
53254;DHT22;39148;53.332;6.922;2022-10-23T11:15:12;14.40;92.30
53254;DHT22;39148;53.332;6.922;2022-10-23T11:17:41;13.40;92.20
53254;DHT22;39148;53.332;6.922;2022-10-23T11:28:40;13.40;91.70
53254;DHT22;39148;53.332;6.922;2022-10-23T11:31:34;13.50;92.60
53254;DHT22;39148;53.332;6.922;2022-10-23T11:37:00;13.40;91.70
53254;DHT22;39148;53.332;6.922;2022-10-23T11:39:33;13.60;92.60
53254;DHT22;39148;53.332;6.922;2022-10-23T11:42:28;13.50;91.60
53254;DHT22;39148;53.332;6.922;2022-10-23T11:44:54;13.60;92.70
53254;DHT22;39148;53.332;6.922;2022-10-23T11:47:37;13.50;92.00
53254;DHT22;39148;53.332;6.922;2022-10-23T11:50:14;13.70;92.60
53254;DHT22;39148;53.332;6.922;2022-10-23T11:55:20;13.50;92.00
53254;DHT22;39148;53.332;6.922;2022-10-23T12:00:34;13.60;92.10
53254;DHT22;39148;53.332;6.922;2022-10-23T12:03:03;13.70;92.50
53254;DHT22;39148;53.332;6.922;2022-10-23T12:05:36;13.70;92.00
53254;DHT22;39148;53.332;6.922;2022-10-23T12:08:16;13.60;92.70
53254;DHT22;39148;53.332;6.922;2022-10-23T12:10:46;13.70;92.70
53254;DHT22;39148;53.332;6.922;2022-10-23T12:15:56;13.70;91.70
53254;DHT22;39148;53.332;6.922;2022-10-23T12:18:21;13.70;92.00
53254;DHT22;39148;53.332;6.922;2022-10-23T12:20:54;14.40;92.30
53254;DHT22;39148;53.332;6.922;2022-10-23T12:23:36;13.80;92.20
53254;DHT22;39148;53.332;6.922;2022-10-23T12:28:56;13.80;91.60
53254;DHT22;39148;53.332;6.922;2022-10-23T12:31:51;13.70;91.80
53254;DHT22;39148;53.332;6.922;2022-10-23T12:40:09;13.80;91.70
53254;DHT22;39148;53.332;6.922;2022-10-23T12:42:36;13.90;92.20
53254;DHT22;39148;53.332;6.922;2022-10-23T12:45:27;13.90;92.20
53254;DHT22;39148;53.332;6.922;2022-10-23T12:47:54;13.90;91.80
53254;DHT22;39148;53.332;6.922;2022-10-23T12:50:28;14.00;92.70
53254;DHT22;39148;53.332;6.922;2022-10-23T12:52:55;14.00;92.70
53254;DHT22;39148;53.332;6.922;2022-10-23T12:55:23;14.00;92.80
53254;DHT22;39148;53.332;6.922;2022-10-23T12:57:49;14.00;92.70
53254;DHT22;39148;53.332;6.922;2022-10-23T13:00:19;14.70;92.30
53254;DHT22;39148;53.332;6.922;2022-10-23T13:02:46;14.10;92.20
53254;DHT22;39148;53.332;6.922;2022-10-23T13:05:22;14.00;92.20
53254;DHT22;39148;53.332;6.922;2022-10-23T13:07:50;14.10;92.20
53254;DHT22;39148;53.332;6.922;2022-10-23T13:10:18;14.10;92.20
53254;DHT22;39148;53.332;6.922;2022-10-23T13:12:57;14.10;92.20
53254;DHT22;39148;53.332;6.922;2022-10-23T13:15:23;14.20;91.80
53254;DHT22;39148;53.332;6.922;2022-10-23T13:20:26;14.10;92.20
53254;DHT22;39148;53.332;6.922;2022-10-23T13:26:01;14.30;92.80
53254;DHT22;39148;53.332;6.922;2022-10-23T13:28:42;14.30;91.70
53254;DHT22;39148;53.332;6.922;2022-10-23T13:33:45;14.20;92.20
53254;DHT22;39148;53.332;6.922;2022-10-23T13:38:44;14.30;91.70
53254;DHT22;39148;53.332;6.922;2022-10-23T13:41:16;14.20;92.20
53254;DHT22;39148;53.332;6.922;2022-10-23T13:43:42;14.40;92.20
53254;DHT22;39148;53.332;6.922;2022-10-23T13:46:20;14.40;92.20
53254;DHT22;39148;53.332;6.922;2022-10-23T13:48:47;14.30;92.30
53254;DHT22;39148;53.332;6.922;2022-10-23T13:51:24;14.40;92.20
53254;DHT22;39148;53.332;6.922;2022-10-23T13:53:51;14.40;92.70
53254;DHT22;39148;53.332;6.922;2022-10-23T13:56:18;14.30;92.20
53254;DHT22;39148;53.332;6.922;2022-10-23T13:58:45;14.30;92.20
53254;DHT22;39148;53.332;6.922;2022-10-23T14:01:30;14.40;92.10
53254;DHT22;39148;53.332;6.922;2022-10-23T14:03:58;14.40;92.30
53254;DHT22;39148;53.332;6.922;2022-10-23T14:06:24;14.50;92.40
53254;DHT22;39148;53.332;6.922;2022-10-23T14:08:50;14.50;92.10
53254;DHT22;39148;53.332;6.922;2022-10-23T14:11:17;14.50;92.10
53254;DHT22;39148;53.332;6.922;2022-10-23T14:13:44;15.40;92.40
53254;DHT22;39148;53.332;6.922;2022-10-23T14:16:17;14.60;92.10
53254;DHT22;39148;53.332;6.922;2022-10-23T14:18:43;14.60;91.70
53254;DHT22;39148;53.332;6.922;2022-10-23T14:21:14;14.50;92.10
53254;DHT22;39148;53.332;6.922;2022-10-23T14:23:40;14.50;92.20
53254;DHT22;39148;53.332;6.922;2022-10-23T14:26:12;14.60;92.10
53254;DHT22;39148;53.332;6.922;2022-10-23T14:28:38;14.60;92.20
53254;DHT22;39148;53.332;6.922;2022-10-23T14:31:05;14.70;92.10
53254;DHT22;39148;53.332;6.922;2022-10-23T14:33:31;14.50;92.10
53254;DHT22;39148;53.332;6.922;2022-10-23T14:35:57;14.50;92.10
53254;DHT22;39148;53.332;6.922;2022-10-23T14:38:23;14.60;92.10
53254;DHT22;39148;53.332;6.922;2022-10-23T14:40:48;14.60;92.10
53254;DHT22;39148;53.332;6.922;2022-10-23T14:43:14;14.70;92.10
53254;DHT22;39148;53.332;6.922;2022-10-23T14:45:40;14.80;92.80
53254;DHT22;39148;53.332;6.922;2022-10-23T14:48:05;14.80;92.10
53254;DHT22;39148;53.332;6.922;2022-10-23T14:50:32;14.60;92.00
53254;DHT22;39148;53.332;6.922;2022-10-23T14:52:58;14.70;92.10
53254;DHT22;39148;53.332;6.922;2022-10-23T14:55:24;14.60;92.00
53254;DHT22;39148;53.332;6.922;2022-10-23T14:57:54;14.60;92.00
53254;DHT22;39148;53.332;6.922;2022-10-23T15:00:20;14.70;92.10
53254;DHT22;39148;53.332;6.922;2022-10-23T15:02:46;14.80;92.70
53254;DHT22;39148;53.332;6.922;2022-10-23T15:05:11;14.70;92.00
53254;DHT22;39148;53.332;6.922;2022-10-23T15:07:37;14.70;92.00
53254;DHT22;39148;53.332;6.922;2022-10-23T15:10:05;14.80;92.10
53254;DHT22;39148;53.332;6.922;2022-10-23T15:12:31;14.70;92.00
53254;DHT22;39148;53.332;6.922;2022-10-23T15:14:56;16.10;92.40
53254;DHT22;39148;53.332;6.922;2022-10-23T15:17:22;14.70;92.00
53254;DHT22;39148;53.332;6.922;2022-10-23T15:19:48;14.80;92.10
53254;DHT22;39148;53.332;6.922;2022-10-23T15:22:13;14.80;92.10
53254;DHT22;39148;53.332;6.922;2022-10-23T15:24:39;14.70;92.00
53254;DHT22;39148;53.332;6.922;2022-10-23T15:27:04;14.90;92.10
53254;DHT22;39148;53.332;6.922;2022-10-23T15:29:30;14.90;92.10
53254;DHT22;39148;53.332;6.922;2022-10-23T15:31:57;14.80;92.10
53254;DHT22;39148;53.332;6.922;2022-10-23T15:34:27;14.80;92.10
53254;DHT22;39148;53.332;6.922;2022-10-23T15:36:54;14.80;92.20
53254;DHT22;39148;53.332;6.922;2022-10-23T15:39:23;14.90;92.10
53254;DHT22;39148;53.332;6.922;2022-10-23T15:41:53;14.90;92.10
53254;DHT22;39148;53.332;6.922;2022-10-23T15:44:22;14.90;92.20
53254;DHT22;39148;53.332;6.922;2022-10-23T15:46:48;14.90;92.10
53254;DHT22;39148;53.332;6.922;2022-10-23T15:49:14;14.90;92.20
53254;DHT22;39148;53.332;6.922;2022-10-23T15:51:42;14.90;92.10
53254;DHT22;39148;53.332;6.922;2022-10-23T15:54:11;14.90;92.20
53254;DHT22;39148;53.332;6.922;2022-10-23T15:56:44;14.90;92.20
53254;DHT22;39148;53.332;6.922;2022-10-23T15:59:10;14.90;92.10
53254;DHT22;39148;53.332;6.922;2022-10-23T16:01:36;14.90;92.10
53254;DHT22;39148;53.332;6.922;2022-10-23T16:04:02;14.90;92.10
53254;DHT22;39148;53.332;6.922;2022-10-23T16:06:27;14.90;92.00
53254;DHT22;39148;53.332;6.922;2022-10-23T16:08:53;14.90;92.00
53254;DHT22;39148;53.332;6.922;2022-10-23T16:11:22;14.90;92.10
53254;DHT22;39148;53.332;6.922;2022-10-23T16:13:48;15.20;92.20
53254;DHT22;39148;53.332;6.922;2022-10-23T16:16:15;14.90;92.00
53254;DHT22;39148;53.332;6.922;2022-10-23T16:18:41;14.90;92.10
53254;DHT22;39148;53.332;6.922;2022-10-23T16:21:19;14.90;92.10
53254;DHT22;39148;53.332;6.922;2022-10-23T16:23:45;14.90;91.60
53254;DHT22;39148;53.332;6.922;2022-10-23T16:26:11;14.90;92.10
53254;DHT22;39148;53.332;6.922;2022-10-23T16:28:37;14.90;92.10
53254;DHT22;39148;53.332;6.922;2022-10-23T16:31:08;14.90;92.10
53254;DHT22;39148;53.332;6.922;2022-10-23T16:33:34;14.90;92.40
53254;DHT22;39148;53.332;6.922;2022-10-23T16:36:04;14.90;92.00
53254;DHT22;39148;53.332;6.922;2022-10-23T16:38:31;14.90;92.10
53254;DHT22;39148;53.332;6.922;2022-10-23T16:40:56;15.00;92.10
53254;DHT22;39148;53.332;6.922;2022-10-23T16:43:23;15.00;92.10
53254;DHT22;39148;53.332;6.922;2022-10-23T16:45:58;14.90;92.00
53254;DHT22;39148;53.332;6.922;2022-10-23T16:48:24;14.90;92.10
53254;DHT22;39148;53.332;6.922;2022-10-23T16:50:50;15.00;92.10
53254;DHT22;39148;53.332;6.922;2022-10-23T16:53:15;14.90;92.00
53254;DHT22;39148;53.332;6.922;2022-10-23T16:55:41;14.90;92.10
53254;DHT22;39148;53.332;6.922;2022-10-23T16:58:07;14.80;92.00
53254;DHT22;39148;53.332;6.922;2022-10-23T17:00:32;14.90;92.10
53254;DHT22;39148;53.332;6.922;2022-10-23T17:03:03;15.00;92.10
53254;DHT22;39148;53.332;6.922;2022-10-23T17:05:33;14.90;92.20
53254;DHT22;39148;53.332;6.922;2022-10-23T17:08:00;15.00;92.20
53254;DHT22;39148;53.332;6.922;2022-10-23T17:10:25;14.80;92.00
53254;DHT22;39148;53.332;6.922;2022-10-23T17:12:51;14.90;92.10
53254;DHT22;39148;53.332;6.922;2022-10-23T17:15:17;14.90;92.10
53254;DHT22;39148;53.332;6.922;2022-10-23T17:17:44;14.90;92.10
53254;DHT22;39148;53.332;6.922;2022-10-23T17:20:10;15.00;92.10
53254;DHT22;39148;53.332;6.922;2022-10-23T17:22:36;14.90;92.00
53254;DHT22;39148;53.332;6.922;2022-10-23T17:25:04;14.90;92.10
53254;DHT22;39148;53.332;6.922;2022-10-23T17:27:30;14.90;92.00